Time;durP1;ratioP1;P1;durP2;ratioP2;P2;SDS_P1;SDS_P2;PMS_P1;PMS_P2;Temp;Humidity;BMP_temperature;BMP_pressure;BME280_temperature;BME280_humidity;BME280_pressure;Samples;Min_cycle;Max_cycle;Signal;HPM_P1;HPM_P2
2021/10/17 00:01:15;;;;;;;21.20;15.20;;;;;;;8.73;85.84;97722.21;116139;1184;67509;-66
2021/10/17 00:03:46;;;;;;;20.00;14.30;;;;;;;8.72;85.78;97720.35;116049;1183;68632;-64
2021/10/17 00:06:17;;;;;;;17.20;12.10;;;;;;;8.70;86.04;97719.10;115983;1184;60411;-67
2021/10/17 00:08:47;;;;;;;17.60;13.10;;;;;;;8.69;85.90;97724.02;116101;1183;60395;-67
2021/10/17 00:11:17;;;;;;;20.40;13.40;;;;;;;8.68;85.86;97722.31;116170;1183;70724;-66
2021/10/17 00:13:47;;;;;;;;;;;;;;;8.67;86.49;97723.43;115978;1182;67147;-68
2021/10/17 00:16:19;;;;;;;26.70;18.50;;;;;;;8.66;86.18;97725.89;116198;1184;68481;-67
2021/10/17 00:18:49;;;;;;;23.70;16.40;;;;;;;8.64;86.94;97728.45;116072;1184;60351;-65
2021/10/17 00:21:19;;;;;;;23.10;16.30;;;;;;;8.65;86.25;97724.94;116093;1182;60412;-64
2021/10/17 00:23:49;;;;;;;27.00;18.60;;;;;;;8.65;86.31;97729.63;116045;1183;72226;-66
2021/10/17 00:26:18;;;;;;;;;;;;;;;8.64;86.08;97725.16;116265;1183;68319;-66
2021/10/17 00:28:49;;;;;;;22.20;15.70;;;;;;;8.63;86.76;97726.41;115989;1184;68447;-69
2021/10/17 00:31:20;;;;;;;27.60;20.10;;;;;;;8.64;86.27;97726.75;115964;1184;60380;-63
2021/10/17 00:33:49;;;;;;;21.70;14.50;;;;;;;8.64;86.39;97724.13;115941;1183;60360;-66
2021/10/17 00:36:21;;;;;;;19.80;15.20;;;;;;;8.64;85.96;97723.23;116046;1184;72811;-65
2021/10/17 00:38:50;;;;;;;15.10;11.40;;;;;;;8.63;85.75;97723.30;116098;1182;67606;-69
2021/10/17 00:41:21;;;;;;;13.90;10.80;;;;;;;8.64;85.62;97723.64;116030;1184;69292;-67
2021/10/17 00:43:52;;;;;;;15.00;12.60;;;;;;;8.61;85.68;97726.90;116011;1184;60338;-64
2021/10/17 00:46:23;;;;;;;18.00;13.30;;;;;;;8.58;85.83;97728.15;115997;1184;60425;-69
2021/10/17 00:48:53;;;;;;;10.80;8.20;;;;;;;8.57;85.85;97731.34;115871;1184;71972;-65
2021/10/17 00:51:23;;;;;;;13.60;11.20;;;;;;;8.57;85.61;97728.73;116199;1182;67777;-68
2021/10/17 00:53:55;;;;;;;19.50;13.60;;;;;;;8.57;86.01;97729.61;115910;1184;67611;-68
2021/10/17 00:56:25;;;;;;;19.70;13.70;;;;;;;8.57;86.02;97727.52;115931;1184;60406;-66
2021/10/17 00:58:55;;;;;;;19.10;14.50;;;;;;;8.55;86.35;97725.52;116049;1182;60287;-65
2021/10/17 01:01:25;;;;;;;;;;;;;;;8.55;86.78;97725.03;116058;1184;72205;-67
2021/10/17 01:03:55;;;;;;;;;;;;;;;8.56;85.97;97725.11;116091;1184;67613;-67
2021/10/17 01:06:25;;;;;;;14.90;9.70;;;;;;;8.56;85.94;97725.84;116060;1184;67781;-67
2021/10/17 01:08:56;;;;;;;18.20;13.70;;;;;;;8.55;86.03;97728.31;116128;1184;60289;-67
2021/10/17 01:11:46;;;;;;;21.80;15.60;;;;;;;8.55;86.71;97728.70;115932;1184;60737;-68
2021/10/17 01:14:23;;;;;;;13.60;9.80;;;;;;;8.53;87.01;97730.87;115996;1183;71466;-66
2021/10/17 01:16:53;;;;;;;13.50;9.20;;;;;;;8.54;86.24;97730.11;116065;1183;68177;-65
2021/10/17 01:19:24;;;;;;;14.10;9.80;;;;;;;8.55;85.98;97728.66;116175;1182;69145;-63
2021/10/17 01:22:04;;;;;;;14.90;10.60;;;;;;;8.55;85.75;97725.70;116046;1184;60357;-63
2021/10/17 01:24:33;;;;;;;19.50;13.40;;;;;;;8.54;85.81;97728.02;116009;1184;60428;-70
2021/10/17 01:27:03;;;;;;;15.90;11.90;;;;;;;8.54;85.95;97729.27;116138;1184;71221;-69
2021/10/17 01:29:33;;;;;;;16.00;12.20;;;;;;;8.53;86.22;97728.30;116165;1182;66729;-66
2021/10/17 01:32:03;;;;;;;;;;;;;;;8.52;85.96;97727.09;115995;1184;69283;-69
2021/10/17 01:34:33;;;;;;;19.20;11.40;;;;;;;8.51;85.90;97730.13;115971;1183;60366;-64
2021/10/17 01:37:04;;;;;;;14.00;10.50;;;;;;;8.48;85.91;97731.89;116166;1182;60315;-66
2021/10/17 01:39:34;;;;;;;11.60;8.60;;;;;;;8.42;86.31;97729.11;116072;1184;72088;-70
2021/10/17 01:42:06;;;;;;;13.60;9.70;;;;;;;8.40;86.30;97727.12;116115;1184;67695;-63
2021/10/17 01:44:42;;;;;;;14.80;10.70;;;;;;;8.37;86.39;97728.36;116121;1183;69158;-66
2021/10/17 01:47:13;;;;;;;11.10;7.50;;;;;;;8.35;86.79;97726.16;115881;1184;60410;-64
2021/10/17 01:49:45;;;;;;;12.00;9.10;;;;;;;8.31;87.12;97724.32;115959;1184;60352;-67
2021/10/17 01:52:15;;;;;;;9.20;7.30;;;;;;;8.26;87.49;97724.27;115932;1184;70514;-67
2021/10/17 01:54:47;;;;;;;10.20;6.50;;;;;;;8.25;86.97;97720.89;115894;1184;68474;-68
2021/10/17 01:57:23;;;;;;;10.10;7.60;;;;;;;8.26;86.47;97725.84;115873;1184;68764;-68
2021/10/17 01:59:53;;;;;;;9.60;6.50;;;;;;;8.24;86.82;97724.60;115898;1184;60444;-66
2021/10/17 02:02:41;;;;;;;10.60;7.10;;;;;;;8.24;86.56;97727.39;116143;1183;60335;-67
2021/10/17 02:05:18;;;;;;;7.40;5.70;;;;;;;8.23;86.61;97727.27;115807;1184;72193;-67
2021/10/17 02:07:49;;;;;;;8.80;6.70;;;;;;;8.26;86.21;97726.23;116000;1184;67422;-67
2021/10/17 02:10:20;;;;;;;10.30;6.30;;;;;;;8.25;86.33;97724.36;116097;1183;68446;-66
2021/10/17 02:12:51;;;;;;;7.80;5.90;;;;;;;8.25;86.13;97721.93;115934;1183;60329;-66
2021/10/17 02:15:23;;;;;;;9.20;6.20;;;;;;;8.24;86.17;97717.26;116083;1184;60748;-69
2021/10/17 02:17:53;;;;;;;8.10;5.70;;;;;;;8.24;86.07;97712.77;116033;1184;71399;-65
2021/10/17 02:20:25;;;;;;;9.40;5.50;;;;;;;8.24;86.13;97709.83;115941;1184;67957;-67
2021/10/17 02:22:55;;;;;;;9.10;6.00;;;;;;;8.22;86.18;97710.78;116069;1182;68485;-64
2021/10/17 02:25:26;;;;;;;9.50;5.80;;;;;;;8.20;86.18;97710.39;116021;1183;60380;-64
2021/10/17 02:27:57;;;;;;;8.20;5.70;;;;;;;8.17;86.18;97710.56;116012;1184;60464;-66
2021/10/17 02:30:28;;;;;;;8.70;5.80;;;;;;;8.14;86.41;97710.19;115850;1184;72181;-65
2021/10/17 02:33:10;;;;;;;6.90;5.00;;;;;;;8.11;86.79;97708.67;116128;1184;67673;-67
2021/10/17 02:35:39;;;;;;;;;;;;;;;8.11;86.31;97709.86;116209;1184;69269;-68
2021/10/17 02:38:11;;;;;;;6.60;5.20;;;;;;;8.12;86.09;97711.02;116012;1184;60343;-68
2021/10/17 02:40:41;;;;;;;9.50;5.60;;;;;;;8.11;85.98;97713.84;116193;1183;60369;-67
2021/10/17 02:43:13;;;;;;;9.70;6.60;;;;;;;8.10;86.07;97713.04;115986;1184;72371;-69
2021/10/17 02:45:43;;;;;;;7.60;5.10;;;;;;;8.08;86.67;97716.09;116056;1184;67691;-68
2021/10/17 02:48:13;;;;;;;8.10;6.30;;;;;;;8.09;86.31;97715.55;116131;1184;68320;-67
2021/10/17 02:50:44;;;;;;;7.30;5.10;;;;;;;8.09;86.82;97712.95;116043;1182;60417;-65
2021/10/17 02:53:15;;;;;;;7.40;5.90;;;;;;;8.07;86.99;97715.27;116249;1183;60346;-64
2021/10/17 02:55:47;;;;;;;6.40;4.30;;;;;;;8.07;86.94;97717.77;115976;1184;71490;-65
2021/10/17 02:58:17;;;;;;;9.20;6.10;;;;;;;8.08;86.60;97722.02;116143;1182;67826;-65
2021/10/17 03:00:51;;;;;;;6.10;3.90;;;;;;;8.09;86.48;97722.48;116012;1184;69240;-66
2021/10/17 03:03:21;;;;;;;7.50;5.10;;;;;;;8.11;86.36;97721.14;116085;1184;60400;-65
2021/10/17 03:05:52;;;;;;;7.90;5.40;;;;;;;8.13;86.55;97723.29;116039;1184;60393;-68
2021/10/17 03:08:22;;;;;;;9.10;5.30;;;;;;;8.13;86.98;97727.95;116220;1183;72416;-65
2021/10/17 03:10:52;;;;;;;8.60;6.10;;;;;;;8.13;87.00;97723.13;116112;1184;68340;-64
2021/10/17 03:13:22;;;;;;;9.30;6.40;;;;;;;8.11;87.27;97724.95;116215;1184;68455;-67
2021/10/17 03:15:56;;;;;;;10.00;6.40;;;;;;;8.10;87.39;97722.44;115934;1184;60340;-67
2021/10/17 03:18:26;;;;;;;9.60;6.50;;;;;;;8.10;87.21;97722.39;115946;1184;60304;-66
2021/10/17 03:20:55;;;;;;;;;;;;;;;8.10;87.17;97725.58;116276;1183;72304;-66
2021/10/17 03:23:25;;;;;;;8.20;5.80;;;;;;;8.09;87.09;97728.22;116098;1184;68275;-67
2021/10/17 03:25:55;;;;;;;6.90;4.40;;;;;;;8.09;86.69;97731.30;116096;1183;68759;-64
2021/10/17 03:28:24;;;;;;;6.00;4.20;;;;;;;8.12;86.35;97730.63;116247;1182;60373;-63
2021/10/17 03:30:55;;;;;;;6.00;3.90;;;;;;;8.14;86.06;97730.52;116059;1183;60307;-64
2021/10/17 03:33:25;;;;;;;7.40;5.10;;;;;;;8.14;85.97;97733.98;116143;1184;72484;-66
2021/10/17 03:36:02;;;;;;;7.30;4.30;;;;;;;8.14;86.05;97733.80;116096;1184;68191;-64
2021/10/17 03:38:34;;;;;;;6.30;4.20;;;;;;;8.16;86.03;97732.33;116059;1184;69207;-68
2021/10/17 03:41:04;;;;;;;6.90;4.60;;;;;;;8.17;86.04;97732.77;115937;1176;60405;-68
2021/10/17 03:43:41;;;;;;;7.20;5.90;;;;;;;8.18;86.00;97736.55;116168;1183;60369;-67
2021/10/17 03:46:11;;;;;;;8.50;5.70;;;;;;;8.19;86.45;97733.21;116196;1183;72161;-67
2021/10/17 03:48:42;;;;;;;5.90;4.20;;;;;;;8.20;86.22;97734.19;116150;1182;67490;-63
2021/10/17 03:51:17;;;;;;;7.40;4.60;;;;;;;8.21;85.99;97736.36;116062;1184;68458;-63
2021/10/17 03:53:48;;;;;;;5.80;4.30;;;;;;;8.22;85.86;97738.05;115926;1184;60391;-64
2021/10/17 03:56:17;;;;;;;7.70;5.80;;;;;;;8.23;85.95;97735.23;116038;1184;60403;-68
2021/10/17 03:58:48;;;;;;;6.70;4.20;;;;;;;8.25;85.97;97735.83;116250;1182;72215;-68
2021/10/17 04:01:17;;;;;;;5.60;3.90;;;;;;;8.26;85.80;97736.98;116066;1184;68736;-69
2021/10/17 04:03:47;;;;;;;4.60;3.50;;;;;;;8.26;85.72;97738.86;115901;1184;67527;-69
2021/10/17 04:06:17;;;;;;;6.60;4.00;;;;;;;8.27;85.66;97739.48;116074;1183;60366;-66
2021/10/17 04:08:48;;;;;;;6.30;4.20;;;;;;;8.27;85.73;97739.48;116067;1184;60329;-63
2021/10/17 04:11:18;;;;;;;6.00;5.10;;;;;;;8.28;85.86;97741.55;116134;1184;72206;-66
2021/10/17 04:13:48;;;;;;;7.20;5.00;;;;;;;8.26;86.51;97743.19;115927;1184;69014;-71
2021/10/17 04:16:18;;;;;;;7.90;5.40;;;;;;;8.24;86.24;97744.87;116191;1183;68321;-64
2021/10/17 04:18:48;;;;;;;7.10;4.90;;;;;;;8.23;86.38;97748.92;116217;1183;60344;-67
2021/10/17 04:21:17;;;;;;;8.30;5.10;;;;;;;8.22;86.50;97752.63;115956;1185;60396;-67
2021/10/17 04:23:47;;;;;;;5.70;4.40;;;;;;;8.21;86.26;97748.73;116157;1183;72214;-66
2021/10/17 04:26:18;;;;;;;6.10;4.00;;;;;;;8.20;86.27;97752.23;116021;1184;68409;-64
2021/10/17 04:28:50;;;;;;;5.80;3.70;;;;;;;8.21;85.95;97752.52;115982;1184;69557;-67
2021/10/17 04:31:20;;;;;;;7.50;5.00;;;;;;;8.21;86.12;97755.99;116180;1184;60347;-67
2021/10/17 04:33:50;;;;;;;7.90;5.40;;;;;;;8.20;86.37;97758.83;116073;1182;60348;-64
2021/10/17 04:36:20;;;;;;;8.70;5.00;;;;;;;8.17;86.29;97760.52;116257;1183;72174;-66
2021/10/17 04:38:51;;;;;;;6.40;5.30;;;;;;;8.17;86.41;97763.84;116066;1184;68396;-66
2021/10/17 04:41:20;;;;;;;5.20;3.30;;;;;;;8.16;86.39;97763.38;116008;1184;69274;-67
2021/10/17 04:43:49;;;;;;;6.60;4.30;;;;;;;8.16;86.23;97765.95;116252;1182;60355;-67
2021/10/17 04:46:19;;;;;;;5.60;4.30;;;;;;;8.17;85.89;97768.37;116163;1184;60380;-63
2021/10/17 04:48:49;;;;;;;5.40;4.10;;;;;;;8.17;85.69;97768.69;116142;1183;70260;-66
2021/10/17 04:51:19;;;;;;;8.10;6.20;;;;;;;8.19;85.38;97764.64;116027;1184;68710;-67
2021/10/17 04:53:48;;;;;;;7.70;6.90;;;;;;;8.17;85.59;97766.11;116201;1183;67364;-64
2021/10/17 04:56:19;;;;;;;9.50;6.30;;;;;;;8.16;85.42;97767.00;116026;1184;60384;-68
2021/10/17 04:58:50;;;;;;;8.50;6.90;;;;;;;8.16;85.29;97768.73;116044;1184;60387;-63
2021/10/17 05:01:19;;;;;;;7.80;5.80;;;;;;;8.16;85.34;97771.01;116058;1184;73324;-68
2021/10/17 05:03:50;;;;;;;7.40;6.00;;;;;;;8.16;85.49;97769.98;116086;1184;68391;-63
2021/10/17 05:06:19;;;;;;;5.40;4.40;;;;;;;8.17;85.59;97772.00;116121;1183;69191;-68
2021/10/17 05:08:49;;;;;;;6.70;5.60;;;;;;;8.19;85.35;97769.82;115988;1184;60390;-66
2021/10/17 05:11:20;;;;;;;9.10;7.00;;;;;;;8.21;85.01;97764.85;116126;1174;60409;-64
2021/10/17 05:13:51;;;;;;;7.90;6.00;;;;;;;8.22;85.32;97768.94;116059;1183;71440;-62
2021/10/17 05:16:21;;;;;;;11.10;7.60;;;;;;;8.24;85.64;97771.11;116080;1184;69019;-69
2021/10/17 05:18:50;;;;;;;9.90;7.00;;;;;;;8.26;85.89;97767.71;116141;1183;69070;-67
2021/10/17 05:21:21;;;;;;;9.70;7.20;;;;;;;8.27;86.09;97771.96;116213;1182;60331;-65
2021/10/17 05:23:51;;;;;;;6.70;5.20;;;;;;;8.29;86.64;97770.13;116049;1184;60327;-66
2021/10/17 05:26:21;;;;;;;7.40;5.30;;;;;;;8.32;85.78;97765.41;115931;1184;71514;-67
2021/10/17 05:28:50;;;;;;;7.50;6.00;;;;;;;8.37;85.84;97764.64;116103;1184;68440;-65
2021/10/17 05:31:19;;;;;;;9.70;7.30;;;;;;;8.41;86.49;97766.68;116117;1184;69521;-63
2021/10/17 05:33:48;;;;;;;10.80;7.00;;;;;;;8.47;86.68;97767.89;116162;1182;60365;-68
2021/10/17 05:36:20;;;;;;;13.20;9.20;;;;;;;8.55;86.29;97772.27;115995;1183;60368;-68
2021/10/17 05:38:54;;;;;;;7.90;6.00;;;;;;;8.62;86.93;97773.63;116040;1184;71462;-63
2021/10/17 05:41:25;;;;;;;9.30;7.70;;;;;;;8.66;86.61;97777.71;116215;1184;67722;-67
2021/10/17 05:43:56;;;;;;;11.70;8.50;;;;;;;8.71;86.34;97781.39;115964;1184;68524;-68
2021/10/17 05:46:25;;;;;;;11.10;8.90;;;;;;;8.75;86.17;97786.39;116177;1183;60392;-64
2021/10/17 05:48:55;;;;;;;8.90;7.60;;;;;;;8.79;86.09;97788.39;116057;1184;60397;-67
2021/10/17 05:51:25;;;;;;;16.00;10.30;;;;;;;8.86;86.06;97791.64;116095;1184;71950;-67
2021/10/17 05:53:54;;;;;;;7.40;6.10;;;;;;;8.92;85.98;97796.27;116012;1184;67665;-65
2021/10/17 05:56:24;;;;;;;10.40;7.40;;;;;;;8.99;85.91;97796.60;116115;1184;69297;-68
2021/10/17 05:58:53;;;;;;;12.50;9.50;;;;;;;9.04;85.68;97796.42;116097;1184;60438;-65
2021/10/17 06:01:22;;;;;;;8.80;6.30;;;;;;;9.10;85.76;97802.33;116021;1184;60377;-68
2021/10/17 06:04:05;;;;;;;11.20;7.70;;;;;;;9.18;85.28;97802.91;116166;1184;71526;-64
2021/10/17 06:06:39;;;;;;;13.30;7.60;;;;;;;9.24;84.56;97807.60;116196;1183;67709;-63
2021/10/17 06:09:09;;;;;;;8.40;5.80;;;;;;;9.31;84.66;97810.13;116200;1183;69298;-69
2021/10/17 06:11:41;;;;;;;6.90;5.90;;;;;;;9.37;84.35;97808.20;116049;1184;60385;-66
2021/10/17 06:14:11;;;;;;;7.10;5.50;;;;;;;9.40;83.78;97810.78;116059;1184;60374;-66
2021/10/17 06:16:40;;;;;;;8.60;6.60;;;;;;;9.41;83.49;97811.21;116215;1183;71639;-68
2021/10/17 06:19:11;;;;;;;9.90;6.40;;;;;;;9.44;83.60;97816.65;116119;1183;67796;-67
2021/10/17 06:21:46;;;;;;;8.70;6.80;;;;;;;9.47;83.48;97815.90;116024;1184;68485;-70
2021/10/17 06:24:16;;;;;;;12.50;8.80;;;;;;;9.49;83.21;97816.34;116223;1182;60333;-66
2021/10/17 06:26:45;;;;;;;;;;;;;;;9.51;83.36;97823.02;116038;1184;60351;-67
2021/10/17 06:29:17;;;;;;;11.30;7.30;;;;;;;9.53;83.19;97826.15;116152;1184;71422;-67
2021/10/17 06:31:46;;;;;;;13.30;10.50;;;;;;;9.56;83.04;97824.96;115970;1184;68272;-64
2021/10/17 06:34:15;;;;;;;19.50;12.70;;;;;;;9.56;82.51;97826.13;116010;1184;69270;-62
2021/10/17 06:36:45;;;;;;;20.30;14.30;;;;;;;9.59;82.50;97827.67;116110;1184;60394;-66
2021/10/17 06:39:14;;;;;;;15.40;10.60;;;;;;;9.59;81.97;97830.67;116027;1184;60374;-66
2021/10/17 06:41:44;;;;;;;12.40;9.40;;;;;;;9.63;82.35;97830.55;116063;1184;72089;-68
2021/10/17 06:44:20;;;;;;;14.00;10.10;;;;;;;9.67;82.10;97830.48;116195;1183;68551;-68
2021/10/17 06:46:52;;;;;;;16.10;12.00;;;;;;;9.71;82.14;97832.14;116227;1184;69355;-65
2021/10/17 06:49:23;;;;;;;11.60;8.50;;;;;;;9.76;81.71;97833.99;115927;1184;60371;-63
2021/10/17 06:51:52;;;;;;;13.00;9.50;;;;;;;9.80;81.95;97838.91;116119;1182;60334;-65
2021/10/17 06:54:21;;;;;;;10.10;7.20;;;;;;;9.85;81.52;97840.35;116109;1184;72882;-68
2021/10/17 06:56:51;;;;;;;11.40;8.20;;;;;;;9.87;81.18;97842.80;116088;1184;68471;-64
2021/10/17 06:59:22;;;;;;;11.00;8.40;;;;;;;9.92;81.29;97841.99;116222;1183;69101;-67
2021/10/17 07:01:51;;;;;;;10.80;7.90;;;;;;;9.93;81.06;97844.16;116244;1182;60379;-66
2021/10/17 07:04:21;;;;;;;8.60;6.90;;;;;;;9.99;81.18;97842.63;116260;1184;60364;-67
2021/10/17 07:06:51;;;;;;;9.30;6.50;;;;;;;10.02;80.98;97846.24;116009;1182;72203;-66
2021/10/17 07:09:20;;;;;;;10.20;7.40;;;;;;;10.06;80.91;97840.75;115995;1184;67876;-68
2021/10/17 07:11:54;;;;;;;11.60;8.20;;;;;;;10.09;80.56;97840.42;116008;1184;68712;-70
2021/10/17 07:14:25;;;;;;;8.10;6.10;;;;;;;10.12;80.58;97835.47;115981;1184;60393;-65
2021/10/17 07:17:01;;;;;;;14.40;10.00;;;;;;;10.18;80.58;97834.08;116207;1182;60409;-66
2021/10/17 07:19:32;;;;;;;11.70;8.30;;;;;;;10.21;80.66;97835.27;116227;1182;71422;-71
2021/10/17 07:22:02;;;;;;;11.30;8.00;;;;;;;10.21;80.58;97831.93;116135;1184;67671;-70
2021/10/17 07:24:34;;;;;;;10.30;7.20;;;;;;;10.23;80.11;97832.37;116242;1183;68463;-69
2021/10/17 07:27:04;;;;;;;11.70;8.90;;;;;;;10.29;80.00;97837.59;116019;1184;60399;-68
2021/10/17 07:29:33;;;;;;;8.30;6.40;;;;;;;10.33;79.57;97840.45;116137;1184;60773;-69
2021/10/17 07:32:03;;;;;;;8.60;6.40;;;;;;;10.40;79.54;97843.66;116214;1183;71446;-69
2021/10/17 07:34:33;;;;;;;9.40;6.30;;;;;;;10.45;79.32;97846.45;115993;1184;67675;-65
2021/10/17 07:37:02;;;;;;;8.20;6.00;;;;;;;10.51;79.72;97847.42;116063;1184;69444;-69
2021/10/17 07:39:35;;;;;;;7.70;4.80;;;;;;;10.60;79.59;97849.95;116001;1184;60801;-69
2021/10/17 07:42:05;;;;;;;10.90;6.90;;;;;;;10.69;78.62;97848.51;116165;1184;60377;-68
2021/10/17 07:44:36;;;;;;;13.30;8.40;;;;;;;10.74;78.18;97848.88;116187;1183;72549;-65
2021/10/17 07:47:15;;;;;;;8.10;6.80;;;;;;;10.85;77.98;97846.98;116289;1182;67723;-67
2021/10/17 07:50:05;;;;;;;8.30;5.90;;;;;;;10.99;77.45;97848.31;116128;1183;69696;-66
2021/10/17 07:52:38;;;;;;;5.90;4.50;;;;;;;11.14;77.64;97847.61;116236;1183;60724;-67
2021/10/17 07:55:16;;;;;;;5.70;4.30;;;;;;;11.28;77.63;97846.48;116108;1184;60878;-70
2021/10/17 07:57:54;;;;;;;7.80;6.00;;;;;;;11.38;76.82;97850.13;116325;1182;71245;-68
2021/10/17 08:00:30;;;;;;;9.90;6.90;;;;;;;11.47;76.09;97847.96;116237;1184;67902;-67
2021/10/17 08:03:32;;;;;;;10.20;8.20;;;;;;;11.52;73.65;97848.84;116045;1184;68429;-65
2021/10/17 08:06:19;;;;;;;9.00;6.50;;;;;;;11.53;73.48;97849.95;116131;1182;60313;-69
2021/10/17 08:08:48;;;;;;;12.70;8.10;;;;;;;11.60;74.84;97853.86;116052;1182;60320;-69
2021/10/17 08:11:19;;;;;;;11.10;8.40;;;;;;;11.66;74.46;97856.55;116063;1184;73257;-64
2021/10/17 08:13:48;;;;;;;7.20;5.70;;;;;;;11.68;72.83;97857.46;116191;1183;68420;-65
2021/10/17 08:16:22;;;;;;;8.90;6.80;;;;;;;11.71;72.77;97856.52;116055;1183;69698;-65
2021/10/17 08:18:58;;;;;;;7.30;5.40;;;;;;;11.72;72.83;97858.41;116037;1184;60377;-64
2021/10/17 08:21:27;;;;;;;;;;;;;;;11.75;72.53;97859.80;115864;1184;60373;-67
2021/10/17 08:24:08;;;;;;;7.80;5.40;;;;;;;11.76;71.68;97859.88;116116;1183;71394;-68
2021/10/17 08:26:43;;;;;;;7.80;5.60;;;;;;;11.80;71.50;97864.30;116145;1183;67813;-69
2021/10/17 08:29:17;;;;;;;6.60;4.90;;;;;;;11.84;71.44;97858.84;116078;1183;67479;-67
2021/10/17 08:31:48;;;;;;;9.40;6.90;;;;;;;11.90;71.06;97859.44;116015;1184;60378;-69
2021/10/17 08:34:18;;;;;;;6.90;5.20;;;;;;;11.95;70.02;97860.09;116089;1184;60454;-68
2021/10/17 08:36:47;;;;;;;10.20;7.70;;;;;;;12.00;69.56;97859.46;116123;1183;72250;-70
2021/10/17 08:39:49;;;;;;;6.20;5.30;;;;;;;12.05;70.69;97860.48;115963;1184;67694;-69
2021/10/17 08:42:20;;;;;;;7.00;5.20;;;;;;;12.07;70.43;97862.44;116040;1184;69270;-68
2021/10/17 08:45:09;;;;;;;7.30;5.40;;;;;;;12.08;70.29;97859.56;116177;1183;60357;-70
2021/10/17 08:47:39;;;;;;;8.00;5.20;;;;;;;12.02;68.61;97860.88;116058;1183;60322;-70
2021/10/17 08:50:09;;;;;;;8.90;6.70;;;;;;;11.97;68.96;97861.52;115968;1184;72222;-67
2021/10/17 08:52:42;;;;;;;7.20;5.20;;;;;;;11.94;68.38;97858.45;115986;1184;68353;-65
2021/10/17 08:55:12;;;;;;;9.30;6.80;;;;;;;11.96;68.67;97857.13;116031;1184;69035;-68
2021/10/17 08:57:44;;;;;;;11.30;6.90;;;;;;;11.96;68.83;97859.20;116001;1184;60366;-69
2021/10/17 09:00:32;;;;;;;12.10;8.60;;;;;;;11.86;68.82;97854.63;116166;1183;60313;-68
2021/10/17 09:03:35;;;;;;;8.80;5.50;;;;;;;11.91;68.95;97856.76;115956;1184;72231;-70
2021/10/17 09:06:17;;;;;;;8.10;6.00;;;;;;;11.94;68.45;97857.76;115959;1182;67794;-66
2021/10/17 09:09:13;;;;;;;;;;;;;;;11.98;68.86;97860.28;116074;1184;69307;-70
2021/10/17 09:11:57;;;;;;;10.40;7.20;;;;;;;12.07;68.01;97857.00;115966;1184;60412;-68
2021/10/17 09:14:37;;;;;;;8.40;6.40;;;;;;;12.14;66.59;97857.20;115954;1184;60284;-68
2021/10/17 09:17:07;;;;;;;7.40;5.70;;;;;;;11.87;65.75;97855.98;116120;1184;72894;-70
2021/10/17 09:19:36;;;;;;;7.90;6.30;;;;;;;11.85;67.34;97854.39;116024;1184;68465;-66
2021/10/17 09:22:10;;;;;;;7.70;4.70;;;;;;;11.93;67.14;97859.41;116109;1184;69835;-68
2021/10/17 09:24:47;;;;;;;8.90;6.80;;;;;;;12.09;67.63;97856.14;116250;1182;60342;-66
2021/10/17 09:27:23;;;;;;;8.30;6.20;;;;;;;12.24;65.78;97860.85;116320;1182;60327;-69
2021/10/17 09:29:54;;;;;;;10.90;6.90;;;;;;;12.38;65.86;97859.67;116043;1183;71225;-65
2021/10/17 09:32:28;;;;;;;10.20;7.50;;;;;;;12.48;65.67;97863.11;116267;1182;68579;-70
2021/10/17 09:35:06;;;;;;;8.70;6.80;;;;;;;12.48;63.60;97863.83;116107;1184;69361;-68
2021/10/17 09:38:07;;;;;;;11.20;7.30;;;;;;;12.38;64.32;97862.96;115999;1184;60384;-64
2021/10/17 09:40:50;;;;;;;7.00;5.50;;;;;;;12.29;62.96;97858.91;115992;1184;60369;-69
2021/10/17 09:43:33;;;;;;;8.60;5.90;;;;;;;12.36;64.87;97858.40;116007;1184;72737;-69
2021/10/17 09:46:14;;;;;;;7.30;4.60;;;;;;;12.53;65.09;97860.10;116174;1182;68548;-69
2021/10/17 09:48:45;;;;;;;8.10;5.50;;;;;;;12.69;64.32;97857.35;115905;1185;69504;-70
2021/10/17 09:51:19;;;;;;;7.20;5.50;;;;;;;12.85;64.68;97852.85;115998;1184;60404;-69
2021/10/17 09:53:49;;;;;;;7.60;4.60;;;;;;;13.00;64.22;97849.97;115997;1184;60450;-65
2021/10/17 09:56:29;;;;;;;8.70;5.70;;;;;;;13.16;63.10;97848.92;116127;1183;72468;-66
2021/10/17 09:59:04;;;;;;;9.00;6.70;;;;;;;13.35;62.87;97848.41;116061;1176;67426;-64
2021/10/17 10:01:35;;;;;;;8.40;6.10;;;;;;;13.45;60.89;97840.99;116064;1182;68666;-67
2021/10/17 10:04:09;;;;;;;8.40;5.50;;;;;;;13.55;61.61;97841.90;115910;1184;60380;-68
2021/10/17 10:06:45;;;;;;;8.90;6.50;;;;;;;13.68;61.68;97842.11;115928;1184;60324;-65
2021/10/17 10:09:19;;;;;;;9.40;5.90;;;;;;;13.83;61.74;97840.77;116043;1184;72450;-69
2021/10/17 10:11:50;;;;;;;9.40;7.60;;;;;;;14.08;61.35;97841.70;116024;1182;66707;-68
2021/10/17 10:14:21;;;;;;;8.30;6.50;;;;;;;14.30;59.51;97839.97;116040;1182;69422;-68
2021/10/17 10:16:55;;;;;;;9.10;7.60;;;;;;;14.53;58.32;97838.50;116095;1184;60325;-67
2021/10/17 10:19:25;;;;;;;8.60;5.80;;;;;;;14.69;58.49;97842.95;116146;1183;60324;-65
2021/10/17 10:21:55;;;;;;;7.40;5.00;;;;;;;15.03;57.80;97839.43;116172;1184;72141;-65
2021/10/17 10:24:31;;;;;;;7.00;5.80;;;;;;;15.38;57.81;97841.16;116176;1184;67759;-66
2021/10/17 10:27:03;;;;;;;6.30;5.20;;;;;;;15.85;57.98;97836.10;115987;1184;69299;-68
2021/10/17 10:29:34;;;;;;;9.90;7.10;;;;;;;16.43;55.02;97838.16;116144;1183;60764;-65
2021/10/17 10:32:08;;;;;;;7.60;5.70;;;;;;;17.06;54.35;97836.52;116064;1182;60324;-70
2021/10/17 10:34:37;;;;;;;7.60;5.80;;;;;;;17.43;52.26;97837.30;116175;1183;72242;-68
2021/10/17 10:37:26;;;;;;;9.00;6.00;;;;;;;17.46;50.32;97837.88;116065;1184;68828;-68
2021/10/17 10:40:01;;;;;;;8.20;6.30;;;;;;;17.29;51.06;97834.16;116156;1183;68470;-70
2021/10/17 10:42:34;;;;;;;9.30;7.10;;;;;;;16.92;49.08;97838.84;116116;1183;61258;-68
2021/10/17 10:45:18;;;;;;;8.30;6.10;;;;;;;16.62;51.04;97835.70;116122;1182;60374;-69
2021/10/17 10:47:47;;;;;;;8.30;5.40;;;;;;;15.98;50.64;97834.81;116181;1182;72082;-71
2021/10/17 10:50:34;;;;;;;8.20;6.20;;;;;;;15.67;51.89;97834.30;116136;1183;68191;-69
2021/10/17 10:53:03;;;;;;;11.90;8.10;;;;;;;15.24;52.37;97831.16;116200;1182;69395;-69
2021/10/17 10:55:43;;;;;;;10.40;7.60;;;;;;;14.54;52.48;97832.06;116083;1183;60353;-66
2021/10/17 10:58:32;;;;;;;10.40;7.60;;;;;;;14.26;54.64;97832.07;116271;1183;60322;-70
2021/10/17 11:01:00;;;;;;;10.30;7.50;;;;;;;14.03;55.63;97830.96;116092;1183;72867;-67
2021/10/17 11:03:44;;;;;;;9.40;6.80;;;;;;;13.66;56.24;97831.27;116055;1184;67770;-68
2021/10/17 11:06:17;;;;;;;11.50;8.00;;;;;;;13.50;57.32;97829.90;116076;1182;69223;-68
2021/10/17 11:09:22;;;;;;;9.90;7.00;;;;;;;13.35;57.44;97830.72;116139;1180;60355;-65
2021/10/17 11:11:51;;;;;;;10.90;7.90;;;;;;;13.11;57.57;97828.84;116004;1184;60376;-68
2021/10/17 11:14:21;;;;;;;11.10;8.40;;;;;;;12.86;57.83;97824.45;116205;1182;71601;-70
2021/10/17 11:16:51;;;;;;;12.20;8.50;;;;;;;12.71;58.97;97825.55;116091;1184;68216;-70
2021/10/17 11:19:20;;;;;;;12.20;9.10;;;;;;;12.67;60.43;97826.04;116194;1183;68571;-71
2021/10/17 11:21:49;;;;;;;13.80;9.70;;;;;;;12.44;60.25;97827.60;116133;1183;60391;-69
2021/10/17 11:24:19;;;;;;;13.90;9.10;;;;;;;12.23;61.59;97825.92;116195;1182;60366;-66
2021/10/17 11:27:08;;;;;;;11.10;8.20;;;;;;;12.25;60.97;97824.98;116078;1183;71972;-66
2021/10/17 11:29:42;;;;;;;11.80;8.70;;;;;;;12.20;60.70;97819.02;116171;1182;68989;-70
2021/10/17 11:32:19;;;;;;;11.60;8.30;;;;;;;12.34;61.35;97822.40;116144;1184;68416;-67
2021/10/17 11:35:05;;;;;;;13.60;9.90;;;;;;;12.52;62.03;97823.84;116114;1182;60358;-68
2021/10/17 11:37:35;;;;;;;11.20;7.80;;;;;;;12.55;61.55;97822.08;116040;1184;60333;-68
2021/10/17 11:40:08;;;;;;;;;;;;;;;12.61;61.57;97822.29;116215;1182;72375;-71
2021/10/17 11:42:47;;;;;;;12.00;8.60;;;;;;;12.82;60.58;97816.52;116137;1182;67494;-68
2021/10/17 11:45:28;;;;;;;11.80;6.40;;;;;;;12.99;61.43;97808.60;116159;1183;69375;-67
2021/10/17 11:48:01;;;;;;;10.80;8.10;;;;;;;13.27;60.59;97808.05;116123;1183;60373;-68
2021/10/17 11:50:38;;;;;;;13.60;8.80;;;;;;;13.48;59.38;97805.02;116184;1183;60318;-66
2021/10/17 11:53:09;;;;;;;13.20;7.90;;;;;;;13.53;59.17;97804.80;116145;1182;72217;-69
2021/10/17 11:55:48;;;;;;;11.70;8.70;;;;;;;13.59;59.21;97802.40;116102;1184;68842;-68